EST,Max TemperatureF,Mean TemperatureF,Min TemperatureF,Max Dew PointF,MeanDew PointF,Min DewpointF,Max Humidity, Mean Humidity, Min Humidity, Max Sea Level PressureIn, Mean Sea Level PressureIn, Min Sea Level PressureIn, Max VisibilityMiles, Mean VisibilityMiles, Min VisibilityMiles, Max Wind SpeedMPH, Mean Wind SpeedMPH, Max Gust SpeedMPH,PrecipitationIn, CloudCover, Events, WindDirDegrees
2013-11-1,81,75,68,70,67,64,90,79,67,29.99,29.86,29.76,10,10,2,21,13,31,0.13,5,Rain,205
2013-11-2,72,64,55,70,62,47,93,75,57,29.92,29.77,29.72,10,8,1,16,6,23,0.99,5,Rain,256
2013-11-3,66,55,44,48,41,37,83,59,34,30.32,30.12,29.91,10,10,10,17,7,22,0.00,0,,352
2013-11-4,63,52,41,40,37,34,89,63,36,30.48,30.43,30.34,10,10,10,21,10,26,0.00,0,,29
2013-11-5,76,61,45,55,48,39,83,66,49,30.45,30.41,30.37,10,10,6,21,10,28,T,5,Rain,36
2013-11-6,76,65,53,63,59,49,87,74,60,30.36,30.23,30.10,10,8,2,20,8,24,0.12,7,Rain,50
2013-11-7,75,65,55,63,61,40,93,78,62,30.09,29.99,29.91,10,8,2,17,6,23,0.29,7,Rain,316
2013-11-8,60,49,38,40,32,26,79,53,27,30.32,30.23,30.06,10,10,10,20,8,25,0.00,0,,354
2013-11-9,64,50,36,48,39,31,83,63,42,30.37,30.30,30.22,10,10,10,9,2,12,0.00,0,,95
2013-11-10,70,59,47,49,43,34,86,59,31,30.23,30.18,30.10,10,10,10,13,4,15,0.00,0,,252
2013-11-11,63,52,41,42,36,31,89,64,39,30.33,30.24,30.17,10,10,9,17,6,22,0.00,0,,45
2013-11-12,70,54,37,44,35,22,86,57,27,30.37,30.13,30.02,10,10,9,30,10,39,T,5,,346
2013-11-13,49,39,29,29,21,14,82,54,26,30.51,30.44,30.35,10,9,2,24,10,33,0.02,2,Snow,359
2013-11-14,61,44,26,33,23,14,81,49,16,30.52,30.44,30.37,10,10,8,10,2,13,0.00,0,,302
2013-11-15,68,52,36,58,46,31,89,66,43,30.37,30.29,30.21,10,10,10,13,4,17,0.00,3,,82
2013-11-16,77,68,58,61,57,55,93,72,50,30.24,30.20,30.17,10,6,0,13,4,16,0.01,6,Fog-Rain,47
2013-11-17,78,67,55,66,60,53,93,77,60,30.19,30.10,29.99,10,5,0,15,5,20,0.04,7,Fog-Rain,106
2013-11-18,84,73,62,68,64,42,93,72,51,29.96,29.87,29.78,10,9,0,18,9,24,T,5,Fog,246
2013-11-19,62,52,42,38,30,25,65,45,25,30.27,30.10,29.92,10,10,10,23,10,26,0.00,0,,18
2013-11-20,61,51,41,43,38,31,82,65,47,30.38,30.33,30.27,10,10,10,17,11,22,0.00,2,,23
2013-11-21,71,59,47,56,51,41,93,76,58,30.43,30.38,30.35,10,10,6,14,7,18,0.01,4,Rain,47
2013-11-22,76,65,54,59,56,52,93,77,61,30.36,30.26,30.12,10,10,6,9,4,14,0.00,6,,182
2013-11-23,66,60,53,61,56,28,90,73,55,30.11,30.07,30.01,10,8,2,15,7,20,0.08,7,Rain,330
2013-11-24,53,40,27,28,13,3,45,32,18,30.55,30.36,30.12,10,10,10,23,12,31,0.00,0,,358
2013-11-25,47,35,23,30,15,4,70,45,20,30.59,30.50,30.34,10,10,10,14,6,17,0.00,0,,38
2013-11-26,72,55,37,67,56,30,89,76,63,30.31,29.96,29.64,10,7,1,25,9,38,1.12,7,Rain,140
2013-11-27,72,54,35,66,54,21,90,71,52,30.16,29.64,29.47,10,8,2,26,14,39,0.86,8,Rain-Thunderstorm,252
2013-11-28,48,39,29,28,21,16,85,57,28,30.50,30.39,30.19,10,10,10,17,6,25,0.00,0,,351
2013-11-29,55,43,30,29,27,22,85,58,30,30.58,30.52,30.48,10,10,10,16,6,21,0.00,0,,24
2013-11-30,58,46,34,41,34,25,75,61,47,30.56,30.47,30.32,10,10,10,15,8,20,T,4,,13